Big Coppitt Key, Florida
Current Conditions -  °F | °C
As of 5:53 AM on Friday 24 Oct 2014 (Local Time) from KNQX Reporting Station
Overcast Overcast  
Wind Chill: 75°   Ceiling: 1200
Heat Index: 75°   Visibility: 10mi
Dew Point: 72°   Wind: 15mph
Humidity: 90%   Direction: 40°NE
Pressure: 29.8"   Gusts: 23mph
Location:  24.6°N, 81.66°W
Report Text: KNQX 240953Z AUTO 04013G20KT 10SM BKN012 BKN021 OVC065 24/22 A2980 RMK AO2 SLP090 T02390222 TSNO $
Loading
Personal Weather Stations






























Interactive Weather Map
Tropical Storm Tracking
New forecast layout! Learn more

10-Day Weather Forecast

Advertisements
Track Severe Weather on mobile